Flight Track Log - Related Links

Times and Time Zones

All times are in EDT time to prevent confusion due to time zone crossing. See the LOF3427 flight status page for this flight to view local times or setup timezone preferences in your user account.

Time Position Orientation Groundspeed Altitude Reporting Facility
EDT Latitude Longitude Course Direction KTS MPH feet Rate Location/Type
Fri 10:46:38 PM 38.9500 -77.5667 288° West 214 246 2,800  Level Potomac TRACON
Fri 10:47:38 PM 38.9333 -77.6333 252° West 225 259 5,400 2,343 Climbing Potomac TRACON
Fri 10:48:23 PM 38.9264 -77.6889 261° West 228 262 6,900 2,264 Climbing Washington Center
Fri 10:49:24 PM 38.9311 -77.7825 274° West 234 269 9,400 1,983 Climbing Washington Center
Fri 10:50:21 PM 38.9356 -77.8681 274° West 258 297 10,800 1,128 Climbing Washington Center
Fri 10:51:00 PM 38.8879 -77.9847 288° West  Level FlightAware Approximate
Fri 10:51:21 PM 38.9439 -77.9856 275° West 286 329 11,600  Level Washington Center
Fri 10:52:23 PM 38.9519 -78.1033 275° West 313 360 13,100 1,550 Climbing Washington Center
Fri 10:53:21 PM 38.9597 -78.2183 275° West 325 374 14,700 1,765 Climbing Washington Center
Fri 10:54:22 PM 38.9678 -78.3308 275° West 325 374 16,600 1,525 Climbing Washington Center
Fri 10:55:23 PM 38.9733 -78.4433 274° West 325 374 17,800 1,109 Climbing Washington Center
Fri 10:56:21 PM 38.9831 -78.5583 276° West 325 374 18,800 1,050 Climbing Washington Center
Fri 10:57:23 PM 38.9886 -78.6736 274° West 330 380 19,900 1,289 Climbing Washington Center
Fri 10:58:22 PM 38.9961 -78.7886 275° West 330 380 21,400 1,525 Climbing Washington Center
Fri 11:00:00 PM 38.9995 -78.9839 271° West  Level FlightAware Approximate
Fri 11:07:00 PM 39.0550 -79.7762 276° West  Level FlightAware Approximate
Fri 11:08:00 PM 39.0649 -79.8953 276° West  Level FlightAware Approximate
Fri 11:09:00 PM 39.0667 -80.0149 270° West  Level FlightAware Approximate
Fri 11:10:00 PM 39.0727 -80.1343 275° West  Level FlightAware Approximate
Fri 11:11:00 PM 39.0812 -80.2536 275° West  Level FlightAware Approximate
Fri 11:12:00 PM 39.0834 -80.3732 270° West  Level FlightAware Approximate
Fri 11:13:00 PM 39.0873 -80.4928 274° West  Level FlightAware Approximate
Fri 11:14:00 PM 39.0935 -80.6123 274° West  Level FlightAware Approximate
Fri 11:15:00 PM 39.0996 -80.7319 274° West  Level FlightAware Approximate
Fri 11:16:00 PM 39.1055 -80.8514 274° West  Level FlightAware Approximate
Fri 11:17:00 PM 39.1113 -80.9710 274° West  Level FlightAware Approximate
Fri 11:18:00 PM 39.1195 -81.0897 300° West  Level FlightAware Approximate
Fri 11:19:00 PM 39.1655 -81.1938 300° West  Level FlightAware Approximate
Fri 11:20:00 PM 39.2115 -81.2981 300° West  Level FlightAware Approximate
Fri 11:21:00 PM 39.2573 -81.4025 300° West  Level FlightAware Approximate
Fri 11:22:00 PM 39.3026 -81.5073 295° West  Level FlightAware Approximate
Fri 11:23:00 PM 39.3417 -81.6164 295° West  Level FlightAware Approximate
Fri 11:24:00 PM 39.3806 -81.7256 295° West  Level FlightAware Approximate
Fri 11:25:00 PM 39.4226 -81.8329 297° West  Level FlightAware Approximate
Fri 11:26:00 PM 39.4647 -81.9402 297° West  Level FlightAware Approximate
Fri 11:27:00 PM 39.5068 -82.0477 297° West  Level FlightAware Approximate
Fri 11:28:00 PM 39.5487 -82.1553 297° West  Level FlightAware Approximate
Fri 11:29:00 PM 39.5906 -82.2629 297° West  Level FlightAware Approximate
Fri 11:30:00 PM 39.6323 -82.3708 297° West  Level FlightAware Approximate
Fri 11:31:00 PM 39.6740 -82.4787 297° West  Level FlightAware Approximate
Fri 11:32:00 PM 39.7155 -82.5868 297° West  Level FlightAware Approximate
Fri 11:33:00 PM 39.7577 -82.6946 297° West  Level FlightAware Approximate
Fri 11:34:00 PM 39.8002 -82.8021 297° West  Level FlightAware Approximate
Fri 11:35:00 PM 39.8427 -82.9098 297° West  Level FlightAware Approximate
Fri 11:36:00 PM 39.8851 -83.0176 297° West  Level FlightAware Approximate
Fri 11:37:00 PM 39.9274 -83.1255 297° West  Level FlightAware Approximate
Fri 11:38:00 PM 39.9501 -83.2397 270° West  Level FlightAware Approximate
Fri 11:39:00 PM 39.9501 -83.3610 270° West  Level FlightAware Approximate
Fri 11:40:00 PM 39.9500 -83.4822 270° West  Level FlightAware Approximate
Fri 11:41:00 PM 39.9460 -83.6034 267° West  Level FlightAware Approximate
Fri 11:42:00 PM 39.9412 -83.7245 267° West  Level FlightAware Approximate
Fri 11:43:00 PM 39.9363 -83.8456 267° West  Level FlightAware Approximate
Fri 11:44:00 PM 39.9312 -83.9667 267° West  Level FlightAware Approximate
Fri 11:45:00 PM 39.9260 -84.0877 267° West  Level FlightAware Approximate
Fri 11:46:00 PM 39.9207 -84.2087 267° West  Level FlightAware Approximate
Fri 11:47:00 PM 39.9151 -84.3297 266° West  Level FlightAware Approximate
Fri 11:48:00 PM 39.9089 -84.4507 266° West  Level FlightAware Approximate
Fri 11:49:00 PM 39.9024 -84.5716 266° West  Level FlightAware Approximate
Fri 11:50:00 PM 39.8965 -84.6925 267° West  Level FlightAware Approximate
Fri 11:51:00 PM 39.8908 -84.8135 267° West  Level FlightAware Approximate
Fri 11:52:00 PM 39.8850 -84.9344 266° West  Level FlightAware Approximate
Fri 11:53:00 PM 39.8791 -85.0553 266° West  Level FlightAware Approximate
Fri 11:54:00 PM 39.8730 -85.1762 266° West  Level FlightAware Approximate
Fri 11:55:00 PM 39.8668 -85.2970 266° West  Level FlightAware Approximate
Fri 11:56:00 PM 39.8598 -85.4178 266° West  Level FlightAware Approximate
Fri 11:57:00 PM 39.8526 -85.5386 266° West  Level FlightAware Approximate
Fri 11:58:00 PM 39.8453 -85.6593 266° West  Level FlightAware Approximate
Fri 11:59:00 PM 39.8379 -85.7800 265° West  Level FlightAware Approximate
Sat 12:00:00 AM 39.8303 -85.9006 265° West  Level FlightAware Approximate
Sat 12:01:00 AM 39.8227 -86.0213 265° West  Level FlightAware Approximate
Sat 12:02:00 AM 39.8149 -86.1419 265° West  Level FlightAware Approximate
Sat 12:03:00 AM 39.8069 -86.2625 265° West  Level FlightAware Approximate
Sat 12:04:00 AM 39.7961 -86.3823 252° West  Level FlightAware Approximate
Sat 12:05:00 AM 39.7676 -86.4975 252° West  Level FlightAware Approximate
Sat 12:06:00 AM 39.7390 -86.6125 252° West  Level FlightAware Approximate
Sat 12:07:00 AM 39.7103 -86.7275 252° West  Level FlightAware Approximate
Sat 12:08:00 AM 39.6814 -86.8423 252° West  Level FlightAware Approximate
Sat 12:09:00 AM 39.6524 -86.9571 252° West  Level FlightAware Approximate
Sat 12:10:00 AM 39.6310 -87.0733 251° West  Level FlightAware Approximate
Sat 12:11:00 AM 39.6012 -87.1876 251° West  Level FlightAware Approximate
Sat 12:12:00 AM 39.5714 -87.3019 251° West  Level FlightAware Approximate
Sat 12:13:00 AM 39.5418 -87.4162 252° West  Level FlightAware Approximate
Sat 12:14:00 AM 39.5132 -87.5309 252° West  Level FlightAware Approximate
Sat 12:15:00 AM 39.4845 -87.6455 252° West  Level FlightAware Approximate
Sat 12:16:00 AM 39.4558 -87.7600 252° West  Level FlightAware Approximate
Sat 12:17:00 AM 39.4259 -87.8740 251° West  Level FlightAware Approximate
Sat 12:18:00 AM 39.3955 -87.9877 251° West  Level FlightAware Approximate
Sat 12:19:00 AM 39.3694 -88.1031 256° West  Level FlightAware Approximate
Sat 12:20:00 AM 39.3303 -88.2114 251° West  Level FlightAware Approximate
Sat 12:21:00 AM 39.3006 -88.3252 251° West  Level FlightAware Approximate
Sat 12:22:00 AM 39.2707 -88.4390 251° West  Level FlightAware Approximate
Sat 12:23:00 AM 39.2407 -88.5526 251° West  Level FlightAware Approximate
Sat 12:24:00 AM 39.2105 -88.6662 251° West  Level FlightAware Approximate
Sat 12:25:00 AM 39.1803 -88.7796 251° West  Level FlightAware Approximate
Sat 12:26:00 AM 39.1499 -88.8929 251° West  Level FlightAware Approximate
Sat 12:27:00 AM 39.1195 -89.0062 251° West  Level FlightAware Approximate
Sat 12:28:00 AM 39.0908 -89.1201 252° West  Level FlightAware Approximate
Sat 12:29:00 AM 39.0663 -89.2356 256° West  Level FlightAware Approximate
Sat 12:30:00 AM 39.0432 -89.3516 256° West  Level FlightAware Approximate
Sat 12:31:00 AM 39.0199 -89.4675 256° West  Level FlightAware Approximate
Sat 12:32:00 AM 38.9833 -89.5762 270° West  Level FlightAware Approximate
Sat 12:33:00 AM 38.9508 -89.6877 248° West  Level FlightAware Approximate
Sat 12:34:00 AM 38.9161 -89.7986 248° West  Level FlightAware Approximate
Sat 12:35:00 AM 38.8855 -89.9102 247° West  Level FlightAware Approximate
Sat 12:36:00 AM 38.8489 -90.0200 247° West  Level FlightAware Approximate
Sat 12:37:00 AM 38.8133 -90.1301 252° West  Level FlightAware Approximate
Sat 12:38:00 AM 38.7760 -90.2386 247° West  Level FlightAware Approximate
Sat 12:39:00 AM 38.7395 -90.3482 247° West  Level FlightAware Approximate
Sat 12:40:00 AM 38.7333 -90.3667 247° West  Level FlightAware Approximate
Sat 12:41:00 AM 38.7487 -90.3700 247° West  Level Estimated
Sat 12:42:00 AM 38.7487 -90.3700 247° West  Level Estimated
Sat 12:43:00 AM 38.7487 -90.3700 247° West  Level Estimated
Sat 12:44:00 AM 38.7487 -90.3700 247° West  Level Estimated
Sat 12:45:00 AM 38.7487 -90.3700 247° West  Level Estimated
Sat 12:46:00 AM 38.7487 -90.3700 247° West  Level Estimated
Sat 12:47:00 AM 38.7487 -90.3700 247° West  Level Estimated
Sat 12:48:00 AM 38.7487 -90.3700 247° West  Level Estimated
Sat 12:49:00 AM 38.7487 -90.3700 247° West  Level Estimated
Sat 12:50:00 AM 38.7487 -90.3700 247° West  Level Estimated
Sat 12:51:00 AM 38.7487 -90.3700 247° West  Level Estimated
Sat 12:52:00 AM 38.7487 -90.3700 247° West  Level Estimated
Sat 12:53:00 AM 38.7487 -90.3700 247° West  Level Estimated

Login

Don't have an account? Register now (free) for customized features, flight alerts, and more!